Latest Weather Observations for St Helens

IDT60801

Issued at 9:41 am EST Wednesday 28 September 2022 (issued every 10 minutes, with the page automatically refreshed every 10 minutes)

About weather observations | Map of weather stations | Latest weather observations for TAS | Other Formats
Station Details ID: 092120 Name: ST HELENS AERODROME Lat: -41.34 Lon: 148.28 Height: 48.0 m
Data from the previous 72 hours. | See also: Recent months at St Helens
Date/Time
EST
Temp
°C
App
Temp
°C
Dew
Point
°C
Rel
Hum
%
Delta-T
°C
Wind Press
QNH
hPa
Press
MSL
hPa
Rain since
9am
mm
Dir  Spd
km/h
Gust
km/h
Spd
kts
Gust
kts
28/09:30am 13.3 10.8 9.7 79 1.8 SSE 13 22 7 12 1019.1 1019.2 0.0
28/09:00am 13.1 10.1 9.2 77 2.0 SSE 15 22 8 12 1019.1 1019.2 0.0
28/08:30am 12.4 12.0 9.8 84 1.3 SSW 2 13 1 7 1018.8 1018.8 0.0
28/08:00am 9.4 8.5 7.8 90 0.8 WNW 2 7 1 4 1018.8 1018.8 0.0
28/07:30am 7.9 6.1 7.1 95 0.4 W 6 9 3 5 1018.6 1018.6 0.0
28/07:00am 6.8 4.6 6.4 97 0.2 NNW 7 13 4 7 1018.4 1018.4 0.0
28/06:30am 6.2 3.5 5.8 97 0.2 NW 9 13 5 7 1018.1 1018.1 0.0
28/06:00am 5.7 2.9 5.3 97 0.2 WNW 9 11 5 6 1017.8 1017.8 0.0
28/05:30am 5.7 3.3 5.3 97 0.2 WNW 7 9 4 5 1017.4 1017.4 0.0
28/05:00am 5.9 2.4 5.5 97 0.2 NW 13 15 7 8 1017.1 1017.1 0.0
28/04:30am 6.3 3.3 5.9 97 0.2 NNW 11 13 6 7 1017.0 1017.0 0.0
28/04:00am 6.7 3.7 6.1 96 0.3 NW 11 13 6 7 1017.0 1017.0 0.0
28/03:30am 6.9 4.4 6.5 97 0.2 NW 9 13 5 7 1016.9 1016.9 0.0
28/03:00am 6.8 4.3 6.4 97 0.2 NW 9 13 5 7 1016.8 1016.8 0.0
28/02:30am 7.2 4.0 6.9 98 0.1 NW 13 15 7 8 1016.9 1016.9 0.0
28/02:00am 7.2 4.4 6.9 98 0.1 NNW 11 13 6 7 1017.0 1017.0 0.0
28/01:30am 7.3 4.5 7.0 98 0.1 NW 11 13 6 7 1017.1 1017.1 0.0
28/01:00am 7.5 5.1 7.2 98 0.1 NW 9 11 5 6 1017.3 1017.3 0.0
28/12:30am 7.8 5.9 7.5 98 0.1 NW 7 9 4 5 1017.4 1017.4 0.0
28/12:00am 8.0 6.1 7.6 97 0.2 NW 7 9 4 5 1017.4 1017.4 0.0
 
Date/Time
EST
Temp
°C
App
Temp
°C
Dew
Point
°C
Rel
Hum
%
Delta-T
°C
Wind Press
QNH
hPa
Press
MSL
hPa
Rain since
9am
mm
Dir  Spd
km/h
Gust
km/h
Spd
kts
Gust
kts
27/11:30pm 8.1 5.9 7.7 97 0.2 NW 9 11 5 6 1017.5 1017.5 0.0
27/11:00pm 8.5 6.4 8.2 98 0.1 NW 9 11 5 6 1017.4 1017.4 0.0
27/10:30pm 8.8 7.3 8.4 97 0.2 NW 6 7 3 4 1017.4 1017.4 0.0
27/10:00pm 9.1 7.5 8.6 97 0.2 NW 7 9 4 5 1017.4 1017.4 0.0
27/09:30pm 9.6 9.4 9.0 96 0.3 CALM 0 0 0 0 1017.5 1017.5 0.0
27/09:00pm 9.9 8.4 9.1 95 0.4 NW 7 9 4 5 1017.7 1017.7 0.0
27/08:30pm 10.5 10.5 9.7 95 0.4 CALM 0 6 0 3 1017.7 1017.7 0.0
27/08:00pm 10.4 9.0 9.6 95 0.4 S 7 11 4 6 1017.7 1017.7 0.0
27/07:30pm 10.4 9.0 9.6 95 0.4 S 7 9 4 5 1017.7 1017.7 0.0
27/07:00pm 10.7 9.5 9.6 93 0.6 S 6 9 3 5 1017.4 1017.4 0.0
27/06:30pm 11.2 9.9 10.0 92 0.6 S 7 11 4 6 1017.1 1017.1 0.0
27/06:00pm 12.0 10.8 10.2 89 0.9 S 7 11 4 6 1016.9 1016.9 0.0
27/05:30pm 13.1 12.0 10.5 84 1.4 SSE 7 13 4 7 1016.8 1016.8 0.0
27/05:00pm 14.0 12.9 10.6 80 1.8 SSE 7 17 4 9 1016.6 1016.6 0.0
27/04:30pm 14.3 12.6 9.9 75 2.3 SSE 9 19 5 10 1016.3 1016.3 0.0
27/04:00pm 14.2 11.7 9.6 74 2.4 SE 13 20 7 11 1016.3 1016.3 0.0
27/03:30pm 14.6 12.1 9.6 72 2.6 SSE 13 22 7 12 1016.3 1016.3 0.0
27/03:00pm 14.4 11.9 9.8 74 2.4 SE 13 19 7 10 1016.3 1016.3 0.0
27/02:30pm 15.2 12.9 10.6 74 2.4 SSE 13 20 7 11 1016.5 1016.5 0.0
27/02:00pm 15.5 13.3 10.9 74 2.4 SE 13 24 7 13 1016.4 1016.4 0.0
27/01:30pm 15.8 13.8 10.3 70 2.9 SE 11 17 6 9 1016.7 1016.7 0.0
27/01:00pm 15.6 13.0 9.5 67 3.2 SE 13 22 7 12 1016.8 1016.8 0.0
27/12:30pm 15.5 12.8 9.0 65 3.3 SE 13 20 7 11 1017.0 1017.0 0.0
27/12:00pm 16.0 14.4 10.1 68 3.1 SSE 9 17 5 9 1017.1 1017.1 0.0
27/11:30am 15.6 13.2 9.9 69 3.0 S 13 24 7 13 1017.2 1017.2 0.0
27/11:00am 14.6 11.9 9.0 69 2.9 SSE 13 22 7 12 1017.6 1017.6 0.0
27/10:30am 15.0 12.5 9.6 70 2.8 S 13 20 7 11 1017.6 1017.6 0.0
27/10:24am 14.5 11.5 9.3 71 2.7 S 15 22 8 12 1017.6 1017.6 0.0
27/10:00am 14.2 11.7 11.0 81 1.7 S 15 28 8 15 1017.6 1017.6 0.0
27/09:30am 13.8 11.8 10.0 78 2.0 S 11 26 6 14 1017.6 1017.6 0.0
27/09:00am 13.8 11.5 10.4 80 1.8 SSE 13 20 7 11 1017.5 1017.5 0.0
27/08:30am 12.8 10.8 10.0 83 1.4 S 11 20 6 11 1017.4 1017.4 0.0
27/08:00am 11.9 10.2 10.0 88 1.0 S 9 15 5 8 1017.2 1017.2 0.0
27/07:30am 11.2 10.8 9.8 91 0.7 SW 2 7 1 4 1017.1 1017.1 0.0
27/07:00am 10.5 9.1 9.6 94 0.5 S 7 11 4 6 1016.9 1016.9 0.0
27/06:30am 10.0 9.8 9.2 95 0.4 CALM 0 0 0 0 1016.7 1016.7 0.0
27/06:00am 10.1 8.6 9.3 95 0.4 NW 7 9 4 5 1016.4 1016.4 0.0
27/05:30am 10.2 10.0 9.1 93 0.5 CALM 0 0 0 0 1015.9 1015.9 0.0
27/05:00am 10.2 10.0 9.1 93 0.5 CALM 0 0 0 0 1015.8 1015.8 0.0
27/04:30am 10.2 10.0 9.0 92 0.6 CALM 0 0 0 0 1015.6 1015.6 0.0
27/04:00am 10.3 9.4 9.1 92 0.6 W 4 7 2 4 1015.6 1015.6 0.0
27/03:30am 10.4 9.9 9.3 93 0.5 WNW 2 7 1 4 1015.5 1015.5 0.0
27/03:00am 10.5 9.2 9.3 92 0.6 NNW 6 9 3 5 1015.4 1015.4 0.0
27/02:30am 10.5 10.4 9.3 92 0.6 CALM 0 2 0 1 1015.3 1015.3 0.0
27/02:00am 10.5 9.2 9.3 92 0.6 WNW 6 7 3 4 1015.4 1015.4 0.0
27/01:30am 10.5 10.4 9.4 93 0.6 CALM 0 0 0 0 1015.7 1015.7 0.0
27/01:00am 10.7 9.5 9.5 92 0.6 NNW 6 7 3 4 1015.9 1015.9 0.0
27/12:30am 10.7 10.6 9.5 92 0.6 CALM 0 4 0 2 1015.9 1015.9 0.0
27/12:00am 10.8 9.4 9.6 92 0.6 NNW 7 9 4 5 1015.9 1015.9 0.0
 
Date/Time
EST
Temp
°C
App
Temp
°C
Dew
Point
°C
Rel
Hum
%
Delta-T
°C
Wind Press
QNH
hPa
Press
MSL
hPa
Rain since
9am
mm
Dir  Spd
km/h
Gust
km/h
Spd
kts
Gust
kts
26/11:30pm 10.8 9.6 9.6 92 0.6 W 6 7 3 4 1016.0 1016.0 0.0
26/11:00pm 10.8 9.1 9.7 93 0.6 NNW 9 11 5 6 1016.1 1016.1 0.0
26/10:30pm 10.8 10.0 9.6 92 0.6 WNW 4 9 2 5 1016.1 1016.1 0.0
26/10:00pm 10.9 10.8 9.5 91 0.7 CALM 0 6 0 3 1015.9 1015.9 0.0
26/09:30pm 10.9 9.7 9.7 92 0.6 WNW 6 7 3 4 1015.7 1015.7 0.0
26/09:00pm 11.5 11.1 9.8 89 0.9 NNW 2 7 1 4 1015.6 1015.6 0.0
26/08:30pm 11.6 11.5 9.5 87 1.1 CALM 0 0 0 0 1015.5 1015.5 0.0
26/08:00pm 11.9 10.8 10.0 88 1.0 WNW 6 7 3 4 1015.4 1015.4 0.0
26/07:30pm 12.2 11.0 9.6 84 1.3 N 6 9 3 5 1015.2 1015.2 0.0
26/07:00pm 12.2 12.1 9.6 84 1.3 CALM 0 0 0 0 1014.9 1014.9 0.0
26/06:30pm 12.4 11.9 9.2 81 1.6 W 2 7 1 4 1014.6 1014.6 0.0
26/06:00pm 12.7 11.1 8.8 77 2.0 W 7 13 4 7 1014.4 1014.4 0.0
26/05:30pm 13.5 11.7 7.9 69 2.8 W 7 17 4 9 1014.1 1014.1 0.0
26/05:00pm 13.8 11.4 8.8 72 2.5 NW 11 15 6 8 1013.8 1013.8 0.0
26/04:30pm 14.1 12.1 8.7 70 2.7 NNW 9 13 5 7 1013.6 1013.6 0.0
26/04:00pm 14.5 12.0 8.2 66 3.2 NNW 11 19 6 10 1013.6 1013.6 0.0
26/03:30pm 15.1 11.8 7.9 62 3.6 N 15 20 8 11 1013.6 1013.6 0.0
26/03:00pm 15.4 12.8 7.9 61 3.8 NNW 11 19 6 10 1013.6 1013.6 0.0
26/02:30pm 15.6 12.8 8.4 62 3.7 NNW 13 20 7 11 1013.7 1013.7 0.0
26/02:00pm 15.8 13.1 9.0 64 3.5 NNE 13 17 7 9 1013.6 1013.6 0.0
26/01:30pm 15.7 12.8 9.6 67 3.2 NNE 15 20 8 11 1013.9 1013.9 0.0
26/01:00pm 15.1 12.2 8.3 64 3.4 NNE 13 20 7 11 1014.3 1014.3 0.0
26/12:30pm 14.9 11.5 7.5 61 3.7 NNE 15 19 8 10 1014.6 1014.6 0.0
26/12:00pm 15.6 12.4 6.9 56 4.3 NNE 13 17 7 9 1014.8 1014.8 0.0
26/11:30am 14.2 10.9 6.6 60 3.7 NNE 13 20 7 11 1015.1 1015.1 0.0
26/11:00am 15.6 12.5 7.4 58 4.1 NNE 13 17 7 9 1015.3 1015.3 0.0
26/10:30am 14.6 12.1 6.4 58 4.0 NNW 9 11 5 6 1015.6 1015.6 0.0
26/10:00am 14.2 12.4 7.3 63 3.4 NNW 6 9 3 5 1015.6 1015.6 0.0
26/09:30am 13.5 11.6 6.6 63 3.3 NW 6 9 3 5 1015.8 1015.8 0.0
26/09:00am 12.2 10.1 6.7 69 2.6 NW 7 9 4 5 1016.0 1016.0 0.2
26/08:30am 11.1 8.9 7.8 80 1.6 NW 9 11 5 6 1016.0 1016.0 0.2
26/08:00am 9.0 6.9 6.8 86 1.0 NW 7 11 4 6 1015.9 1015.9 0.2
26/07:30am 7.8 5.7 5.8 87 0.9 WNW 6 9 3 5 1015.6 1015.6 0.2
26/07:00am 7.0 4.3 5.5 90 0.7 WNW 9 13 5 7 1015.8 1015.8 0.2
26/06:30am 6.7 3.5 5.3 91 0.6 NW 11 13 6 7 1015.8 1015.8 0.2
26/06:00am 6.4 3.9 5.0 91 0.6 NW 7 13 4 7 1015.6 1015.6 0.2
26/05:30am 6.0 2.7 4.8 92 0.5 NW 11 15 6 8 1015.4 1015.4 0.2
26/05:00am 5.7 2.1 4.8 94 0.4 NW 13 17 7 9 1015.3 1015.3 0.2
26/04:30am 6.0 2.4 5.1 94 0.4 NNW 13 15 7 8 1015.0 1015.0 0.2
26/04:00am 5.8 2.6 4.9 94 0.4 NNW 11 15 6 8 1014.8 1014.8 0.2
26/03:30am 6.4 3.2 5.0 91 0.6 NW 11 13 6 7 1014.7 1014.7 0.2
26/03:00am 6.3 3.1 5.3 93 0.4 NNW 11 15 6 8 1014.8 1014.8 0.2
26/02:30am 6.3 3.2 5.4 94 0.4 NW 11 13 6 7 1014.6 1014.6 0.2
26/02:00am 7.3 5.0 5.8 90 0.7 NW 7 9 4 5 1014.7 1014.7 0.2
26/01:30am 7.5 4.9 6.0 90 0.7 NNW 9 13 5 7 1015.0 1015.0 0.2
26/01:00am 7.8 5.6 6.1 89 0.8 NNW 7 11 4 6 1015.1 1015.1 0.2
26/12:30am 8.5 5.8 5.8 83 1.2 NW 9 13 5 7 1015.3 1015.3 0.2
26/12:00am 8.8 5.7 5.4 79 1.5 NW 11 15 6 8 1015.2 1015.2 0.2
 
Date/Time
EST
Temp
°C
App
Temp
°C
Dew
Point
°C
Rel
Hum
%
Delta-T
°C
Wind Press
QNH
hPa
Press
MSL
hPa
Rain since
9am
mm
Dir  Spd
km/h
Gust
km/h
Spd
kts
Gust
kts
25/11:30pm 8.6 6.2 5.4 80 1.4 WNW 7 11 4 6 1015.3 1015.3 0.2
25/11:00pm 9.1 6.4 5.8 80 1.5 W 9 13 5 7 1015.4 1015.4 0.2
25/10:30pm 9.5 6.9 6.0 79 1.6 WNW 9 15 5 8 1015.5 1015.5 0.2
25/10:00pm 9.8 6.9 6.5 80 1.5 WNW 11 19 6 10 1015.5 1015.5 0.2
25/09:30pm 10.0 7.3 7.4 84 1.2 WNW 11 17 6 9 1015.3 1015.3 0.2
25/09:00pm 10.3 7.3 7.7 84 1.3 N 13 20 7 11 1015.2 1015.2 0.2
25/08:30pm 10.2 8.5 7.6 84 1.2 WNW 6 11 3 6 1015.2 1015.2 0.2
25/08:00pm 10.7 9.1 7.9 83 1.4 NW 6 11 3 6 1015.1 1015.1 0.2
25/07:30pm 11.3 9.6 8.5 83 1.4 NNW 7 9 4 5 1014.8 1014.8 0.2
25/07:00pm 11.7 10.0 8.4 80 1.6 NNW 7 11 4 6 1014.5 1014.5 0.2
25/06:30pm 12.3 9.4 8.2 76 2.0 NW 13 20 7 11 1014.1 1014.1 0.2
25/06:00pm 13.0 10.0 7.9 71 2.5 NNW 13 20 7 11 1014.0 1014.0 0.2
25/05:30pm 13.5 10.8 7.5 67 2.9 NW 11 20 6 11 1013.4 1013.4 0.2
25/05:00pm 14.0 11.0 7.5 65 3.2 NNW 13 22 7 12 1013.1 1013.1 0.2
25/04:30pm 14.6 11.5 7.4 62 3.6 NW 13 20 7 11 1012.9 1012.9 0.2
25/04:00pm 15.8 13.2 7.8 59 4.0 NW 11 20 6 11 1012.6 1012.6 0.2
25/03:30pm 16.9 14.4 6.7 51 5.0 WNW 9 17 5 9 1012.5 1012.5 0.2
25/03:00pm 15.3 12.5 6.8 57 4.2 W 11 20 6 11 1012.8 1012.8 0.2
25/02:30pm 15.5 12.8 7.3 58 4.1 WNW 11 22 6 12 1012.9 1012.9 0.2
25/02:00pm 15.0 12.0 6.0 55 4.3 WNW 11 22 6 12 1013.1 1013.1 0.2
25/01:30pm 14.8 11.8 9.2 69 2.9 NE 15 20 8 11 1013.3 1013.3 0.2
25/01:00pm 13.5 9.9 8.4 71 2.6 NE 17 20 9 11 1013.6 1013.6 0.2
25/12:30pm 14.1 11.1 9.3 73 2.5 NNE 15 20 8 11 1013.8 1013.8 0.2
25/12:00pm 13.7 10.7 7.9 68 2.9 NNE 13 17 7 9 1014.3 1014.3 0.2
25/11:30am 13.1 10.1 7.8 70 2.6 NNE 13 19 7 10 1014.4 1014.4 0.2
25/11:00am 13.8 10.6 6.9 63 3.3 NNE 13 17 7 9 1014.4 1014.4 0.2
25/10:30am 13.2 10.7 6.5 64 3.2 NNE 9 17 5 9 1014.8 1014.8 0.2
25/10:00am 13.1 11.5 6.5 64 3.2 N 4 9 2 5 1014.9 1014.9 0.0

Other formats

Comma delimited format used in spreadsheet applications
http://www.bom.gov.au/fwo/IDT60801/IDT60801.95981.axf

JavaScript Object Notation format (JSON) in row-major order
http://www.bom.gov.au/fwo/IDT60801/IDT60801.95981.json

Data quality

Most of these data are generated automatically and are frequently updated. Quality checks on data are not normally performed. It is possible for incorrect values to appear. Refer to information at About Latest Weather Observations and please check the disclaimer before using these data.